createdAt,value
2022-09-28T00:06:02.202Z,16.39404296875
2022-09-28T00:16:02.175Z,15.7958984375
2022-09-28T00:26:02.053Z,16.69921875
2022-09-28T00:36:01.978Z,17.8955078125
2022-09-28T00:46:01.971Z,18.00537109375
2022-09-28T00:56:01.859Z,17.29736328125
2022-09-28T01:06:01.755Z,17.19970703125
2022-09-28T01:16:01.753Z,17.29736328125
2022-09-28T01:26:01.624Z,16.89453125
2022-09-28T01:36:01.550Z,16.6015625
2022-09-28T01:46:01.557Z,16.29638671875
2022-09-28T01:56:01.403Z,16.19873046875
2022-09-28T02:06:01.329Z,16.19873046875
2022-09-28T02:16:01.326Z,15.90576171875
2022-09-28T02:26:01.314Z,16.39404296875
2022-09-28T02:36:01.153Z,17.39501953125
2022-09-28T02:46:01.104Z,18.10302734375
2022-09-28T02:56:01.059Z,16.796875
2022-09-28T03:06:00.936Z,16.69921875
2022-09-28T03:16:00.891Z,16.50390625
2022-09-28T03:26:00.754Z,16.19873046875
2022-09-28T03:36:00.660Z,16.19873046875
2022-09-28T03:46:00.695Z,15.90576171875
2022-09-28T03:56:00.531Z,15.6005859375
2022-09-28T04:06:00.482Z,15.6005859375
2022-09-28T04:16:00.550Z,15.4052734375
2022-09-28T04:26:00.345Z,15.29541015625
2022-09-28T04:36:00.255Z,15.29541015625
2022-09-28T04:46:00.281Z,15.29541015625
2022-09-28T04:56:00.118Z,15.5029296875
2022-09-28T05:06:00.061Z,15.19775390625
2022-09-28T05:16:05.060Z,14.90478515625
2022-09-28T05:25:59.919Z,14.794921875
2022-09-28T05:36:01.471Z,14.599609375
2022-09-28T05:45:59.817Z,14.404296875
2022-09-28T05:55:59.697Z,14.29443359375
2022-09-28T06:05:59.614Z,14.19677734375
2022-09-28T06:15:59.560Z,14.00146484375
2022-09-28T06:25:59.505Z,13.7939453125
2022-09-28T06:35:59.412Z,13.5009765625
2022-09-28T06:45:59.402Z,13.5009765625
2022-09-28T06:55:59.281Z,13.4033203125
2022-09-28T07:05:59.227Z,13.5009765625
2022-09-28T07:15:59.127Z,13.4033203125
2022-09-28T07:25:59.070Z,13.3056640625
2022-09-28T07:35:58.989Z,13.3056640625
2022-09-28T07:45:59.006Z,13.19580078125
2022-09-28T07:55:58.868Z,13.19580078125
2022-09-28T08:05:58.785Z,13.19580078125
2022-09-28T08:15:58.704Z,13.4033203125
2022-09-28T08:25:58.629Z,13.4033203125
2022-09-28T08:35:58.571Z,13.4033203125
2022-09-28T08:45:59.568Z,13.3056640625
2022-09-28T08:55:58.422Z,13.4033203125
2022-09-28T09:05:58.374Z,13.4033203125
2022-09-28T09:15:58.284Z,13.4033203125
2022-09-28T09:25:58.348Z,13.4033203125
2022-09-28T09:35:58.159Z,13.5986328125
2022-09-28T09:45:58.124Z,13.5009765625
2022-09-28T09:55:58.012Z,13.5009765625
2022-09-28T10:05:57.952Z,13.5986328125
2022-09-28T10:15:58.002Z,13.7939453125
2022-09-28T10:25:57.819Z,13.7939453125
2022-09-28T10:35:57.704Z,13.90380859375
2022-09-28T10:45:57.712Z,13.90380859375
2022-09-28T10:55:57.686Z,14.00146484375
2022-09-28T11:05:57.516Z,13.7939453125
2022-09-28T11:15:57.444Z,13.7939453125
2022-09-28T11:25:57.370Z,14.00146484375
2022-09-28T11:35:57.297Z,14.09912109375
2022-09-28T11:45:57.312Z,14.09912109375
2022-09-28T11:55:57.165Z,14.29443359375
2022-09-28T12:05:57.092Z,14.19677734375
2022-09-28T12:16:23.466Z,14.19677734375
2022-09-28T12:25:56.942Z,14.19677734375
2022-09-28T12:35:56.880Z,14.29443359375
2022-09-28T12:46:11.536Z,14.09912109375
2022-09-28T12:55:56.727Z,14.19677734375
2022-09-28T13:05:56.664Z,14.19677734375
2022-09-28T13:15:56.685Z,14.09912109375
2022-09-28T13:25:56.543Z,14.09912109375
2022-09-28T13:35:56.529Z,14.09912109375
2022-09-28T13:45:56.537Z,14.00146484375
2022-09-28T13:55:56.514Z,13.90380859375
2022-09-28T14:05:56.311Z,13.7939453125
2022-09-28T14:15:56.255Z,13.6962890625
2022-09-28T14:25:56.303Z,13.4033203125
2022-09-28T14:35:56.027Z,13.09814453125
2022-09-28T14:45:56.469Z,12.90283203125
2022-09-28T14:55:55.913Z,12.6953125
2022-09-28T15:05:55.845Z,12.5
2022-09-28T15:15:55.802Z,12.40234375
2022-09-28T15:25:55.809Z,12.5
2022-09-28T15:35:56.770Z,12.5
2022-09-28T15:45:55.605Z,12.5
2022-09-28T15:55:55.560Z,12.5
2022-09-28T16:05:55.419Z,12.5
2022-09-28T16:15:55.505Z,12.40234375
2022-09-28T16:25:55.323Z,12.40234375
2022-09-28T16:35:55.259Z,12.298583984375
2022-09-28T16:45:55.307Z,12.298583984375
2022-09-28T16:55:55.967Z,12.298583984375
2022-09-28T17:05:55.001Z,12.298583984375
2022-09-28T17:15:54.985Z,12.200927734375
2022-09-28T17:25:54.863Z,12.200927734375
2022-09-28T17:35:54.827Z,12.200927734375
2022-09-28T17:45:54.812Z,12.200927734375
2022-09-28T17:55:54.688Z,12.200927734375
2022-09-28T18:05:54.575Z,12.09716796875
2022-09-28T18:15:54.650Z,12.200927734375
2022-09-28T18:25:54.439Z,12.200927734375
2022-09-28T18:35:54.371Z,12.298583984375
2022-09-28T18:45:54.367Z,12.40234375
2022-09-28T18:55:54.249Z,12.40234375
2022-09-28T19:05:54.185Z,12.40234375
2022-09-28T19:15:54.336Z,12.40234375
2022-09-28T19:25:54.025Z,12.5
2022-09-28T19:35:53.960Z,12.59765625
2022-09-28T19:45:53.943Z,12.59765625
2022-09-28T19:55:53.953Z,12.59765625
2022-09-28T20:05:53.770Z,12.5
2022-09-28T20:15:53.756Z,12.59765625
2022-09-28T20:25:53.614Z,12.80517578125
2022-09-28T20:35:53.556Z,12.6953125
2022-09-28T20:45:53.548Z,12.6953125
2022-09-28T20:55:54.408Z,12.80517578125
2022-09-28T21:05:53.347Z,12.6953125
2022-09-28T21:15:53.381Z,12.80517578125
2022-09-28T21:25:53.201Z,12.90283203125
2022-09-28T21:35:53.133Z,12.90283203125
2022-09-28T21:45:53.119Z,13.00048828125
2022-09-28T21:55:52.996Z,13.09814453125
2022-09-28T22:05:52.942Z,12.90283203125
2022-09-28T22:15:52.925Z,12.90283203125
2022-09-28T22:25:52.778Z,13.00048828125
2022-09-28T22:35:52.724Z,13.09814453125
2022-09-28T22:45:53.927Z,13.19580078125
2022-09-28T22:55:52.705Z,13.4033203125
2022-09-28T23:05:52.495Z,13.5009765625
2022-09-28T23:15:52.531Z,13.3056640625
2022-09-28T23:25:52.365Z,13.4033203125
2022-09-28T23:35:52.288Z,13.3056640625
2022-09-28T23:45:52.204Z,13.3056640625
